Terminal Aerodrome Forecast
Issued by NWS

Home | Current Version | Previous Version | Text Only | Print | Product List | Glossary On
Versions: 1 2 3 4 5 6 7 8 9 10 11 12 13 14 15 16 17 18 19 20 21 22 23 24 25 26 27 28 29 30 31 32 33 34 35 36 37 38 39 40 41 42 43 44 45 46 47 48 49 50
919
FTUS46 KEKA 232346
TAFACV
TAF
KACV 232346Z 2400/2424 25005KT P6SM SKC
     FM240400 17005KT 6SM BR OVC005
     FM240600 16007G14KT 4SM BR OVC003
     FM241200 VRB03KT 2SM BR OVC002
     FM242000 26006KT P6SM SCT005=

USA.gov is the U.S. government's official web portal to all federal, state and local government web resources and services.